Aviation Digital Data Service (ADDS)

Output produced by METARs form (1740 UTC 16 June 2019)
found at http://www.aviationweather.gov/metar/data/
 
VNKT 161620Z 27005KT 220V320 6000 FEW015 SCT030 BKN100 26/21 Q1009 NOSIG
TAF VNKT 161100Z 1612/1712 27008KT 7000 FEW020 SCT030 
     BECMG 1614/1615 24004KT 6000 FEW015 SCT100 
     BECMG 1700/1704 00000KT 4000 BR FEW010 SCT025 
     BECMG 1704/1705 11004KT 6000 FEW015 SCT100 
     BECMG 1707/1709 28010KT 8000 FEW020 SCT100 
     PROB40 1708/1712 VRB15KT 4000 -TSRA FEW025CB BKN100